Tomstown, Pennsylvania
Current Conditions -  °F | °C
As of 6:53 AM on Monday 20 Oct 2014 (Local Time) from KRYT Reporting Station
Clear Clear  
Wind Chill: 37°   Ceiling: Unl
Heat Index: 37°   Visibility: 10mi
Dew Point: 33°   Wind: 3mph
Humidity: 86%   Direction: 230°SW
Pressure: 30.07"   Gusts: NA
Location:  39.7777°N, 77.5693°W
Report Text: KRYT 201053Z AUTO 23003KT 10SM CLR 03/01 A3007 RMK AO2 SLP190 T00280006 $
Loading
Personal Weather Stations






























Interactive Weather Map
Tropical Storm Tracking
New forecast layout! Learn more

10-Day Weather Forecast

Advertisements
Track Severe Weather on mobile